»·PEaware :: EJM304 KVNY-KASE

EJM304 :: KVNY-KASE

FLIGHT INFORMATION

Flight Status: Arrived
Operator: Unknown
More flights by this operator :: More flights under this callsign
Pilot: Travis S. (24866)
Aircraft: BOMBARDIER BD-100 CHALLENGER 300
(CL30)
More flights by this aircraft type
Origin: KVNY Van Nuys
United States
Destination: KASE Aspen-Pitkin Co/Sardy
United States
More flights between these airports :: More routes between these airports
Route: +NUAL9 DAG LAS J146 DICEE IBSKI SINSY LOYYD SKIER DBL
File this flight plan on PilotEdge
Remarks:
Altitude:
(Current/Filed)
45,000ft
Speed:
(Current/Filed)
430kts
Departed: 29-Dec-19 11:19 AM
Arrived: 29-Dec-19 01:00 PM
Distance/Time
Traveled:
634nm/1:41
Distance/Time
To Go:
Arrived

Flight Plot

Page will automatically refresh every two minutes.

Flight plan parsing failed; only flown route is shown


Map Options




Map Legend


Flown Route
Filed Route
Departure Airport
Arrival Airport
Navaid (VOR, NDB)
Fix

Horizontal Profiles

Position Reports

Time Latitude Longitude Heading Altitude Ground
Speed
29-Dec-19 10:15 34.218746 -118.496570 73 809ft 0kts
29-Dec-19 10:16 34.218746 -118.496570 73 809ft 0kts
29-Dec-19 10:17 34.218746 -118.496570 73 809ft 0kts
29-Dec-19 10:18 34.218746 -118.496570 73 809ft 0kts
29-Dec-19 10:19 34.218746 -118.496570 73 809ft 0kts
29-Dec-19 10:20 34.218746 -118.496570 73 809ft 0kts
29-Dec-19 10:21 34.218746 -118.496570 73 809ft 0kts
29-Dec-19 10:22 34.218746 -118.496570 73 809ft 0kts
29-Dec-19 10:23 34.218746 -118.496570 73 809ft 0kts
29-Dec-19 10:24 34.218746 -118.496570 73 809ft 0kts
29-Dec-19 10:25 34.218746 -118.496570 73 809ft 0kts
29-Dec-19 10:26 34.218746 -118.496570 73 809ft 0kts
29-Dec-19 10:27 34.218746 -118.496570 73 809ft 0kts
29-Dec-19 10:28 34.218746 -118.496570 73 809ft 0kts
29-Dec-19 10:29 34.218746 -118.496570 73 809ft 0kts
29-Dec-19 10:30 34.218746 -118.496570 73 809ft 0kts
29-Dec-19 10:31 34.218746 -118.496570 73 809ft 0kts
29-Dec-19 10:32 34.218746 -118.496570 73 809ft 0kts
29-Dec-19 10:33 34.218746 -118.496570 73 809ft 0kts
29-Dec-19 10:34 34.218746 -118.496570 73 809ft 0kts
29-Dec-19 10:35 34.218746 -118.496570 73 809ft 0kts
29-Dec-19 10:36 34.218746 -118.496570 73 809ft 0kts
29-Dec-19 10:37 34.218746 -118.496570 73 809ft 0kts
29-Dec-19 10:38 34.218746 -118.496570 73 809ft 0kts
29-Dec-19 10:39 34.218746 -118.496570 73 809ft 0kts
29-Dec-19 10:40 34.218746 -118.496570 73 809ft 0kts
29-Dec-19 10:41 34.218746 -118.496570 73 809ft 0kts
29-Dec-19 10:42 34.218746 -118.496570 73 809ft 0kts
29-Dec-19 10:43 34.218746 -118.496570 73 809ft 0kts
29-Dec-19 10:44 34.218746 -118.496570 73 809ft 0kts
29-Dec-19 10:45 34.218746 -118.496570 73 809ft 0kts
29-Dec-19 10:46 34.218746 -118.496570 73 809ft 0kts
29-Dec-19 10:47 34.218746 -118.496570 73 809ft 0kts
29-Dec-19 10:48 34.218746 -118.496570 73 809ft 0kts
29-Dec-19 10:49 34.218746 -118.496570 73 809ft 0kts
29-Dec-19 10:50 34.218746 -118.496570 73 809ft 0kts
29-Dec-19 10:51 34.218746 -118.496570 73 809ft 0kts
29-Dec-19 10:52 34.218746 -118.496570 73 809ft 0kts
29-Dec-19 10:53 34.218746 -118.496570 73 809ft 0kts
29-Dec-19 10:54 34.218746 -118.496570 73 809ft 0kts
29-Dec-19 10:55 34.218746 -118.496570 73 809ft 0kts
29-Dec-19 10:56 34.218746 -118.496570 73 809ft 0kts
29-Dec-19 10:57 34.218746 -118.496570 73 809ft 0kts
29-Dec-19 10:58 34.218746 -118.496570 73 809ft 0kts
29-Dec-19 10:59 34.218746 -118.496570 73 809ft 0kts
29-Dec-19 11:00 34.218746 -118.496570 73 809ft 0kts
29-Dec-19 11:01 34.218746 -118.496570 73 809ft 0kts
29-Dec-19 11:02 34.218746 -118.496570 73 809ft 0kts
29-Dec-19 11:03 34.218746 -118.496570 73 809ft 0kts
29-Dec-19 11:04 34.218746 -118.496570 73 809ft 0kts
29-Dec-19 11:05 34.218746 -118.496570 73 809ft 0kts
29-Dec-19 11:06 34.218746 -118.496570 73 809ft 0kts
29-Dec-19 11:07 34.218849 -118.496515 355 808ft 6kts
29-Dec-19 11:08 34.218661 -118.496939 176 808ft 0kts
29-Dec-19 11:09 34.218661 -118.496939 176 808ft 0kts
29-Dec-19 11:10 34.218661 -118.496939 176 808ft 0kts
29-Dec-19 11:11 34.218661 -118.496939 176 808ft 0kts
29-Dec-19 11:12 34.217952 -118.496821 160 809ft 7kts
29-Dec-19 11:13 34.217401 -118.494372 98 808ft 6kts
29-Dec-19 11:14 34.217439 -118.492291 10 809ft 7kts
29-Dec-19 11:15 34.218610 -118.492241 39 808ft 0kts
29-Dec-19 11:16 34.218610 -118.492241 39 808ft 0kts
29-Dec-19 11:17 34.218694 -118.492134 53 809ft 5kts
29-Dec-19 11:18 34.213379 -118.490718 175 809ft 109kts
29-Dec-19 11:19 34.166145 -118.470495 124 3281ft 231kts
29-Dec-19 11:20 34.140229 -118.401428 62 6916ft 238kts
29-Dec-19 11:21 34.198116 -118.388985 351 10351ft 235kts
29-Dec-19 11:22 34.261415 -118.408042 338 13530ft 242kts
29-Dec-19 11:23 34.337544 -118.440902 338 14034ft 344kts
29-Dec-19 11:24 34.421567 -118.397468 47 14171ft 375kts
29-Dec-19 11:25 34.475203 -118.313234 47 17801ft 309kts
29-Dec-19 11:26 34.528475 -118.228374 47 20294ft 325kts
29-Dec-19 11:27 34.584768 -118.138475 47 22915ft 345kts
29-Dec-19 11:28 34.632846 -118.038306 78 25614ft 360kts
29-Dec-19 11:29 34.647540 -117.914652 80 27647ft 377kts
29-Dec-19 11:30 34.661393 -117.788867 81 29836ft 379kts
29-Dec-19 11:32 34.690000 -117.663500 71 31445ft 391kts
29-Dec-19 11:33 34.721858 -117.538550 72 33283ft 390kts
29-Dec-19 11:34 34.754258 -117.411171 72 34631ft 400kts
29-Dec-19 11:35 34.787273 -117.280835 73 35895ft 407kts
29-Dec-19 11:36 34.820447 -117.149209 73 37379ft 402kts
29-Dec-19 11:37 34.853142 -117.018734 72 38424ft 406kts
29-Dec-19 11:38 34.886142 -116.886471 71 39314ft 409kts
29-Dec-19 11:39 34.919345 -116.752874 71 39981ft 414kts
29-Dec-19 11:40 34.953349 -116.617364 65 40597ft 418kts
29-Dec-19 11:41 35.022192 -116.506040 42 41136ft 414kts
29-Dec-19 11:42 35.102611 -116.403832 41 41776ft 415kts
29-Dec-19 11:43 35.181659 -116.304671 42 42506ft 410kts
29-Dec-19 11:44 35.262084 -116.203693 42 42718ft 418kts
29-Dec-19 11:45 35.343074 -116.101736 42 43197ft 417kts
29-Dec-19 11:46 35.424078 -115.999448 42 43685ft 415kts
29-Dec-19 11:47 35.504278 -115.897874 42 44175ft 412kts
29-Dec-19 11:48 35.583360 -115.797404 42 44667ft 407kts
29-Dec-19 11:48 35.648254 -115.714732 42 45080ft 401kts
29-Dec-19 11:50 35.738252 -115.599746 41 45317ft 402kts
29-Dec-19 11:51 35.816548 -115.499382 41 45319ft 410kts
29-Dec-19 11:52 35.896586 -115.396472 42 45319ft 419kts
29-Dec-19 11:52 35.963972 -115.309588 42 45308ft 427kts
29-Dec-19 11:54 36.060384 -115.183355 49 45307ft 440kts
29-Dec-19 11:55 36.113633 -115.046870 65 45311ft 453kts
29-Dec-19 11:55 36.152156 -114.924780 65 45314ft 462kts
29-Dec-19 11:56 36.198407 -114.774768 65 45311ft 472kts
29-Dec-19 11:57 36.245257 -114.621445 65 45312ft 482kts
29-Dec-19 11:58 36.292951 -114.464467 65 45310ft 492kts
29-Dec-19 11:59 36.341180 -114.304835 66 45301ft 501kts
29-Dec-19 12:00 36.390263 -114.141422 66 45302ft 508kts
29-Dec-19 12:01 36.439642 -113.976052 66 45300ft 513kts
29-Dec-19 12:02 36.488846 -113.810323 66 45302ft 510kts
29-Dec-19 12:03 36.537651 -113.644941 66 45306ft 511kts
29-Dec-19 12:04 36.586339 -113.478965 66 45303ft 511kts
29-Dec-19 12:05 36.634744 -113.312976 67 45228ft 512kts
29-Dec-19 12:06 36.682912 -113.146807 67 45217ft 511kts
29-Dec-19 12:07 36.730737 -112.980713 66 45219ft 510kts
29-Dec-19 12:08 36.778157 -112.815043 65 45220ft 506kts
29-Dec-19 12:09 36.825121 -112.650166 65 45224ft 503kts
29-Dec-19 12:10 36.871682 -112.485606 65 45230ft 501kts
29-Dec-19 12:11 36.917763 -112.321759 66 45223ft 499kts
29-Dec-19 12:12 36.963023 -112.159871 66 45223ft 496kts
29-Dec-19 12:13 37.007743 -111.998910 65 45223ft 493kts
29-Dec-19 12:14 37.052433 -111.837100 65 45217ft 491kts
29-Dec-19 12:15 37.096758 -111.675630 65 45217ft 491kts
29-Dec-19 12:16 37.140765 -111.514383 65 45226ft 492kts
29-Dec-19 12:17 37.184839 -111.351842 65 45228ft 493kts
29-Dec-19 12:18 37.239250 -111.198582 47 45228ft 477kts
29-Dec-19 12:19 37.319761 -111.068655 44 45222ft 475kts
29-Dec-19 12:20 37.402299 -110.939473 43 45223ft 475kts
29-Dec-19 12:21 37.484925 -110.810159 43 45218ft 467kts
29-Dec-19 12:22 37.565215 -110.684074 43 45235ft 462kts
29-Dec-19 12:23 37.645218 -110.557957 43 45240ft 459kts
29-Dec-19 12:24 37.724548 -110.432411 43 45239ft 458kts
29-Dec-19 12:25 37.799907 -110.312695 43 45220ft 456kts
29-Dec-19 12:26 37.872504 -110.196962 43 45217ft 454kts
29-Dec-19 12:27 37.950598 -110.071995 43 45216ft 451kts
29-Dec-19 12:28 38.022331 -109.942066 50 45192ft 457kts
29-Dec-19 12:29 38.087127 -109.804051 51 45185ft 456kts
29-Dec-19 12:30 38.145193 -109.678963 51 45203ft 455kts
29-Dec-19 12:31 38.210055 -109.538520 51 45206ft 456kts
29-Dec-19 12:32 38.273773 -109.399939 51 45206ft 456kts
29-Dec-19 12:33 38.331374 -109.274128 51 45172ft 458kts
29-Dec-19 12:34 38.390393 -109.144699 51 44347ft 472kts
29-Dec-19 12:35 38.453846 -109.004829 49 43763ft 460kts
29-Dec-19 12:36 38.518313 -108.862404 49 42283ft 462kts
29-Dec-19 12:37 38.580321 -108.724668 49 41522ft 458kts
29-Dec-19 12:38 38.643538 -108.583628 49 39714ft 465kts
29-Dec-19 12:39 38.707045 -108.441252 49 37840ft 459kts
29-Dec-19 12:40 38.763336 -108.314545 49 36146ft 451kts
29-Dec-19 12:41 38.819848 -108.186825 49 34621ft 437kts
29-Dec-19 12:42 38.880785 -108.048684 50 32120ft 442kts
29-Dec-19 12:43 38.939179 -107.915496 50 31114ft 426kts
29-Dec-19 12:44 38.996708 -107.783853 51 29745ft 418kts
29-Dec-19 12:45 39.052745 -107.655053 52 28486ft 407kts
29-Dec-19 12:46 39.107347 -107.529039 52 27158ft 399kts
29-Dec-19 12:47 39.159264 -107.405256 63 25633ft 408kts
29-Dec-19 12:48 39.191817 -107.268969 43 24027ft 384kts
29-Dec-19 12:49 39.273209 -107.195300 28 22511ft 366kts
29-Dec-19 12:50 39.357674 -107.124830 28 20934ft 359kts
29-Dec-19 12:51 39.444678 -107.083716 342 19250ft 345kts
29-Dec-19 12:52 39.533300 -107.128829 351 17440ft 340kts
29-Dec-19 12:53 39.590932 -107.051935 94 15564ft 361kts
29-Dec-19 12:54 39.519326 -106.972516 168 14110ft 351kts
29-Dec-19 12:55 39.433181 -106.982175 158 14076ft 297kts
29-Dec-19 12:56 39.361430 -106.950648 161 14045ft 257kts
29-Dec-19 12:57 39.293798 -106.901603 156 10586ft 324kts
29-Dec-19 12:58 39.215977 -106.865325 157 7840ft 196kts
29-Dec-19 12:59 39.208771 -106.862195 354 7840ft 9kts
29-Dec-19 13:00 39.210425 -106.862335 0 7840ft 0kts
29-Dec-19 13:01 39.210425 -106.862335 0 7840ft 0kts
29-Dec-19 13:02 39.211824 -106.862334 343 7840ft 4kts
29-Dec-19 13:03 39.213628 -106.863154 339 7841ft 0kts
29-Dec-19 13:04 39.215461 -106.864031 339 7841ft 24kts
29-Dec-19 13:05 39.221322 -106.866473 17 7840ft 13kts
29-Dec-19 13:06 39.222368 -106.865691 240 7840ft 0kts
29-Dec-19 13:07 39.222389 -106.865641 240 7840ft 0kts
29-Dec-19 13:08 39.222389 -106.865641 240 7840ft 0kts

Navigation Log

Ident Type
Flight plan parsing failed, navigation log unavailable